sensor_id;sensor_type;location;lat;lon;timestamp;pressure;altitude;pressure_sealevel;temperature;humidity
54144;BME280;40050;47.324;18.792;2024-01-10T00:01:10;1020.79;;;-2.32;57.91
54144;BME280;40050;47.324;18.792;2024-01-10T00:03:11;1020.77;;;-2.33;57.87
54144;BME280;40050;47.324;18.792;2024-01-10T00:05:12;1020.71;;;-2.39;57.83
54144;BME280;40050;47.324;18.792;2024-01-10T00:07:13;1020.81;;;-2.37;57.83
54144;BME280;40050;47.324;18.792;2024-01-10T00:09:13;1020.74;;;-2.39;57.79
54144;BME280;40050;47.324;18.792;2024-01-10T00:11:14;1020.70;;;-2.42;57.82
54144;BME280;40050;47.324;18.792;2024-01-10T00:13:15;1020.67;;;-2.47;57.94
54144;BME280;40050;47.324;18.792;2024-01-10T00:15:16;1020.71;;;-2.44;58.13
54144;BME280;40050;47.324;18.792;2024-01-10T00:17:17;1020.76;;;-2.44;58.13
54144;BME280;40050;47.324;18.792;2024-01-10T00:19:18;1020.76;;;-2.47;58.10
54144;BME280;40050;47.324;18.792;2024-01-10T00:21:19;1020.72;;;-2.54;58.21
54144;BME280;40050;47.324;18.792;2024-01-10T00:23:20;1020.85;;;-2.51;58.49
54144;BME280;40050;47.324;18.792;2024-01-10T00:25:21;1020.83;;;-2.52;58.62
54144;BME280;40050;47.324;18.792;2024-01-10T00:27:22;1020.78;;;-2.56;58.69
54144;BME280;40050;47.324;18.792;2024-01-10T00:29:23;1020.72;;;-2.60;58.85
54144;BME280;40050;47.324;18.792;2024-01-10T00:31:24;1020.70;;;-2.62;58.97
54144;BME280;40050;47.324;18.792;2024-01-10T00:33:25;1020.74;;;-2.60;58.95
54144;BME280;40050;47.324;18.792;2024-01-10T00:35:26;1020.73;;;-2.64;58.83
54144;BME280;40050;47.324;18.792;2024-01-10T00:37:27;1020.69;;;-2.70;58.81
54144;BME280;40050;47.324;18.792;2024-01-10T00:39:28;1020.69;;;-2.72;58.63
54144;BME280;40050;47.324;18.792;2024-01-10T00:41:28;1020.75;;;-2.70;58.59
54144;BME280;40050;47.324;18.792;2024-01-10T00:43:29;1020.72;;;-2.77;58.51
54144;BME280;40050;47.324;18.792;2024-01-10T00:45:30;1020.71;;;-2.78;58.31
54144;BME280;40050;47.324;18.792;2024-01-10T00:47:31;1020.53;;;-2.94;58.27
54144;BME280;40050;47.324;18.792;2024-01-10T00:49:32;1020.77;;;-2.82;58.40
54144;BME280;40050;47.324;18.792;2024-01-10T00:51:33;1020.73;;;-2.82;58.42
54144;BME280;40050;47.324;18.792;2024-01-10T00:53:34;1020.74;;;-2.87;58.53
54144;BME280;40050;47.324;18.792;2024-01-10T00:55:36;1020.82;;;-2.86;58.49
54144;BME280;40050;47.324;18.792;2024-01-10T00:57:38;1020.80;;;-2.85;58.61
54144;BME280;40050;47.324;18.792;2024-01-10T00:59:40;1020.73;;;-2.90;58.72
54144;BME280;40050;47.324;18.792;2024-01-10T01:01:41;1020.81;;;-2.89;58.66
54144;BME280;40050;47.324;18.792;2024-01-10T01:03:42;1020.78;;;-2.94;58.99
54144;BME280;40050;47.324;18.792;2024-01-10T01:05:43;1020.80;;;-2.93;58.97
54144;BME280;40050;47.324;18.792;2024-01-10T01:07:45;1020.81;;;-2.94;58.99
54144;BME280;40050;47.324;18.792;2024-01-10T01:09:46;1020.87;;;-2.91;58.86
54144;BME280;40050;47.324;18.792;2024-01-10T01:11:47;1020.82;;;-2.92;58.86
54144;BME280;40050;47.324;18.792;2024-01-10T01:13:48;1020.85;;;-2.95;58.66
54144;BME280;40050;47.324;18.792;2024-01-10T01:15:49;1020.85;;;-2.98;58.64
54144;BME280;40050;47.324;18.792;2024-01-10T01:17:51;1020.80;;;-3.02;58.67
54144;BME280;40050;47.324;18.792;2024-01-10T01:19:52;1020.84;;;-2.99;58.65
54144;BME280;40050;47.324;18.792;2024-01-10T01:21:53;1020.89;;;-3.00;58.60
54144;BME280;40050;47.324;18.792;2024-01-10T01:23:54;1020.88;;;-3.02;58.61
54144;BME280;40050;47.324;18.792;2024-01-10T01:25:55;1020.83;;;-3.07;58.67
54144;BME280;40050;47.324;18.792;2024-01-10T01:27:56;1020.84;;;-3.06;58.75
54144;BME280;40050;47.324;18.792;2024-01-10T01:29:57;1020.76;;;-3.11;58.82
54144;BME280;40050;47.324;18.792;2024-01-10T01:31:58;1020.83;;;-3.07;59.00
54144;BME280;40050;47.324;18.792;2024-01-10T01:33:59;1020.83;;;-3.09;59.10
54144;BME280;40050;47.324;18.792;2024-01-10T01:36:00;1020.75;;;-3.12;59.16
54144;BME280;40050;47.324;18.792;2024-01-10T01:38:01;1020.78;;;-3.12;59.20
54144;BME280;40050;47.324;18.792;2024-01-10T01:40:03;1020.84;;;-3.08;59.09
54144;BME280;40050;47.324;18.792;2024-01-10T01:42:04;1020.76;;;-3.15;59.15
54144;BME280;40050;47.324;18.792;2024-01-10T01:44:05;1020.73;;;-3.14;58.93
54144;BME280;40050;47.324;18.792;2024-01-10T01:46:06;1020.70;;;-3.17;58.97
54144;BME280;40050;47.324;18.792;2024-01-10T01:48:08;1020.82;;;-3.12;58.95
54144;BME280;40050;47.324;18.792;2024-01-10T01:50:09;1020.77;;;-3.14;58.91
54144;BME280;40050;47.324;18.792;2024-01-10T01:52:11;1020.74;;;-3.15;58.90
54144;BME280;40050;47.324;18.792;2024-01-10T01:54:12;1020.73;;;-3.14;58.95
54144;BME280;40050;47.324;18.792;2024-01-10T01:56:13;1020.68;;;-3.19;59.01
54144;BME280;40050;47.324;18.792;2024-01-10T01:58:14;1020.67;;;-3.22;59.05
54144;BME280;40050;47.324;18.792;2024-01-10T02:00:15;1020.69;;;-3.22;59.10
54144;BME280;40050;47.324;18.792;2024-01-10T02:02:16;1020.65;;;-3.23;59.04
54144;BME280;40050;47.324;18.792;2024-01-10T02:04:18;1020.66;;;-3.25;58.87
54144;BME280;40050;47.324;18.792;2024-01-10T02:06:20;1020.66;;;-3.25;59.00
54144;BME280;40050;47.324;18.792;2024-01-10T02:08:21;1020.53;;;-3.31;59.25
54144;BME280;40050;47.324;18.792;2024-01-10T02:10:22;1020.55;;;-3.33;59.33
54144;BME280;40050;47.324;18.792;2024-01-10T02:12:23;1020.62;;;-3.30;59.57
54144;BME280;40050;47.324;18.792;2024-01-10T02:14:24;1020.57;;;-3.35;59.59
54144;BME280;40050;47.324;18.792;2024-01-10T02:16:25;1020.55;;;-3.36;59.48
54144;BME280;40050;47.324;18.792;2024-01-10T02:18:26;1020.64;;;-3.32;59.59
54144;BME280;40050;47.324;18.792;2024-01-10T02:20:27;1020.64;;;-3.32;59.57
54144;BME280;40050;47.324;18.792;2024-01-10T02:22:28;1020.64;;;-3.31;59.67
54144;BME280;40050;47.324;18.792;2024-01-10T02:24:29;1020.55;;;-3.37;59.73
54144;BME280;40050;47.324;18.792;2024-01-10T02:26:30;1020.59;;;-3.35;59.65
54144;BME280;40050;47.324;18.792;2024-01-10T02:28:30;1020.59;;;-3.37;59.61
54144;BME280;40050;47.324;18.792;2024-01-10T02:30:31;1020.54;;;-3.37;59.55
54144;BME280;40050;47.324;18.792;2024-01-10T02:32:32;1020.48;;;-3.44;59.53
54144;BME280;40050;47.324;18.792;2024-01-10T02:34:33;1020.53;;;-3.46;59.57
54144;BME280;40050;47.324;18.792;2024-01-10T02:36:34;1020.62;;;-3.44;59.68
54144;BME280;40050;47.324;18.792;2024-01-10T02:38:35;1020.68;;;-3.43;59.79
54144;BME280;40050;47.324;18.792;2024-01-10T02:40:36;1020.63;;;-3.44;59.99
54144;BME280;40050;47.324;18.792;2024-01-10T02:42:37;1020.64;;;-3.46;60.05
54144;BME280;40050;47.324;18.792;2024-01-10T02:44:38;1020.65;;;-3.46;60.07
54144;BME280;40050;47.324;18.792;2024-01-10T02:46:39;1020.57;;;-3.53;60.10
54144;BME280;40050;47.324;18.792;2024-01-10T02:48:40;1020.56;;;-3.53;60.14
54144;BME280;40050;47.324;18.792;2024-01-10T02:50:41;1020.61;;;-3.49;60.03
54144;BME280;40050;47.324;18.792;2024-01-10T02:52:42;1020.63;;;-3.51;60.08
54144;BME280;40050;47.324;18.792;2024-01-10T02:54:43;1020.61;;;-3.50;60.00
54144;BME280;40050;47.324;18.792;2024-01-10T02:56:44;1020.56;;;-3.50;59.79
54144;BME280;40050;47.324;18.792;2024-01-10T02:58:44;1020.57;;;-3.50;59.79
54144;BME280;40050;47.324;18.792;2024-01-10T03:00:45;1020.61;;;-3.50;59.46
54144;BME280;40050;47.324;18.792;2024-01-10T03:02:46;1020.63;;;-3.49;59.33
54144;BME280;40050;47.324;18.792;2024-01-10T03:04:47;1020.58;;;-3.54;59.33
54144;BME280;40050;47.324;18.792;2024-01-10T03:06:48;1020.63;;;-3.49;59.34
54144;BME280;40050;47.324;18.792;2024-01-10T03:08:49;1020.62;;;-3.50;59.30
54144;BME280;40050;47.324;18.792;2024-01-10T03:10:50;1020.66;;;-3.51;59.22
54144;BME280;40050;47.324;18.792;2024-01-10T03:12:51;1020.65;;;-3.51;59.32
54144;BME280;40050;47.324;18.792;2024-01-10T03:14:52;1020.56;;;-3.57;59.44
54144;BME280;40050;47.324;18.792;2024-01-10T03:16:53;1020.62;;;-3.54;59.39
54144;BME280;40050;47.324;18.792;2024-01-10T03:18:54;1020.59;;;-3.57;59.33
54144;BME280;40050;47.324;18.792;2024-01-10T03:20:54;1020.62;;;-3.58;59.31
54144;BME280;40050;47.324;18.792;2024-01-10T03:22:55;1020.64;;;-3.60;59.42
54144;BME280;40050;47.324;18.792;2024-01-10T03:24:56;1020.66;;;-3.63;59.56
54144;BME280;40050;47.324;18.792;2024-01-10T03:26:57;1020.67;;;-3.64;59.61
54144;BME280;40050;47.324;18.792;2024-01-10T03:28:58;1020.58;;;-3.67;59.71
54144;BME280;40050;47.324;18.792;2024-01-10T03:30:59;1020.69;;;-3.64;59.87
54144;BME280;40050;47.324;18.792;2024-01-10T03:33:00;1020.68;;;-3.68;59.95
54144;BME280;40050;47.324;18.792;2024-01-10T03:35:01;1020.62;;;-3.73;59.97
54144;BME280;40050;47.324;18.792;2024-01-10T03:37:02;1020.73;;;-3.72;60.23
54144;BME280;40050;47.324;18.792;2024-01-10T03:39:03;1020.68;;;-3.74;60.24
54144;BME280;40050;47.324;18.792;2024-01-10T03:41:03;1020.62;;;-3.79;60.20
54144;BME280;40050;47.324;18.792;2024-01-10T03:43:04;1020.73;;;-3.73;60.38
54144;BME280;40050;47.324;18.792;2024-01-10T03:45:05;1020.72;;;-3.72;60.31
54144;BME280;40050;47.324;18.792;2024-01-10T03:47:06;1020.66;;;-3.78;60.32
54144;BME280;40050;47.324;18.792;2024-01-10T03:49:07;1020.62;;;-3.77;60.28
54144;BME280;40050;47.324;18.792;2024-01-10T03:51:08;1020.70;;;-3.72;60.21
54144;BME280;40050;47.324;18.792;2024-01-10T03:53:09;1020.66;;;-3.76;60.33
54144;BME280;40050;47.324;18.792;2024-01-10T03:55:11;1020.72;;;-3.71;60.30
54144;BME280;40050;47.324;18.792;2024-01-10T03:57:12;1020.75;;;-3.69;60.04
54144;BME280;40050;47.324;18.792;2024-01-10T03:59:13;1020.76;;;-3.69;60.01
54144;BME280;40050;47.324;18.792;2024-01-10T04:01:14;1020.77;;;-3.69;59.82
54144;BME280;40050;47.324;18.792;2024-01-10T04:03:14;1020.76;;;-3.74;59.84
54144;BME280;40050;47.324;18.792;2024-01-10T04:05:15;1020.86;;;-3.72;59.93
54144;BME280;40050;47.324;18.792;2024-01-10T04:07:16;1020.81;;;-3.73;59.63
54144;BME280;40050;47.324;18.792;2024-01-10T04:09:17;1020.81;;;-3.72;59.57
54144;BME280;40050;47.324;18.792;2024-01-10T04:11:18;1020.75;;;-3.73;59.82
54144;BME280;40050;47.324;18.792;2024-01-10T04:13:19;1020.77;;;-3.73;59.75
54144;BME280;40050;47.324;18.792;2024-01-10T04:15:20;1020.69;;;-3.79;59.71
54144;BME280;40050;47.324;18.792;2024-01-10T04:17:21;1020.77;;;-3.73;59.68
54144;BME280;40050;47.324;18.792;2024-01-10T04:19:22;1020.75;;;-3.76;59.82
54144;BME280;40050;47.324;18.792;2024-01-10T04:21:23;1020.69;;;-3.81;59.83
54144;BME280;40050;47.324;18.792;2024-01-10T04:23:23;1020.72;;;-3.77;59.84
54144;BME280;40050;47.324;18.792;2024-01-10T04:25:24;1020.74;;;-3.78;59.75
54144;BME280;40050;47.324;18.792;2024-01-10T04:27:26;1020.73;;;-3.79;59.85
54144;BME280;40050;47.324;18.792;2024-01-10T04:29:27;1020.72;;;-3.84;60.02
54144;BME280;40050;47.324;18.792;2024-01-10T04:31:27;1020.75;;;-3.82;59.90
54144;BME280;40050;47.324;18.792;2024-01-10T04:33:28;1020.69;;;-3.88;59.82
54144;BME280;40050;47.324;18.792;2024-01-10T04:35:29;1020.69;;;-3.89;59.73
54144;BME280;40050;47.324;18.792;2024-01-10T04:37:30;1020.79;;;-3.88;59.83
54144;BME280;40050;47.324;18.792;2024-01-10T04:39:31;1020.75;;;-3.87;59.87
54144;BME280;40050;47.324;18.792;2024-01-10T04:41:32;1020.78;;;-3.87;60.24
54144;BME280;40050;47.324;18.792;2024-01-10T04:43:33;1020.74;;;-3.86;60.12
54144;BME280;40050;47.324;18.792;2024-01-10T04:45:34;1020.77;;;-3.88;60.09
54144;BME280;40050;47.324;18.792;2024-01-10T04:47:35;1020.83;;;-3.89;60.04
54144;BME280;40050;47.324;18.792;2024-01-10T04:49:35;1020.80;;;-3.90;60.15
54144;BME280;40050;47.324;18.792;2024-01-10T04:51:36;1020.77;;;-3.90;60.21
54144;BME280;40050;47.324;18.792;2024-01-10T04:53:37;1020.77;;;-3.91;60.17
54144;BME280;40050;47.324;18.792;2024-01-10T04:55:38;1020.85;;;-3.91;60.23
54144;BME280;40050;47.324;18.792;2024-01-10T04:57:39;1020.85;;;-3.91;60.39
54144;BME280;40050;47.324;18.792;2024-01-10T04:59:40;1020.86;;;-3.91;60.35
54144;BME280;40050;47.324;18.792;2024-01-10T05:01:41;1020.89;;;-3.92;60.22
54144;BME280;40050;47.324;18.792;2024-01-10T05:03:42;1020.84;;;-3.95;60.07
54144;BME280;40050;47.324;18.792;2024-01-10T05:05:43;1020.77;;;-4.00;59.95
54144;BME280;40050;47.324;18.792;2024-01-10T05:07:44;1020.84;;;-4.00;60.24
54144;BME280;40050;47.324;18.792;2024-01-10T05:09:45;1020.89;;;-3.97;60.00
54144;BME280;40050;47.324;18.792;2024-01-10T05:11:45;1020.89;;;-3.99;59.95
54144;BME280;40050;47.324;18.792;2024-01-10T05:13:46;1020.90;;;-4.02;60.11
54144;BME280;40050;47.324;18.792;2024-01-10T05:15:47;1020.93;;;-4.05;60.03
54144;BME280;40050;47.324;18.792;2024-01-10T05:17:48;1020.82;;;-4.12;60.07
54144;BME280;40050;47.324;18.792;2024-01-10T05:19:49;1020.90;;;-4.11;60.11
54144;BME280;40050;47.324;18.792;2024-01-10T05:21:50;1020.90;;;-4.12;60.23
54144;BME280;40050;47.324;18.792;2024-01-10T05:23:51;1020.93;;;-4.14;60.36
54144;BME280;40050;47.324;18.792;2024-01-10T05:25:52;1020.87;;;-4.18;60.31
54144;BME280;40050;47.324;18.792;2024-01-10T05:27:52;1020.95;;;-4.17;60.28
54144;BME280;40050;47.324;18.792;2024-01-10T05:29:53;1020.98;;;-4.19;60.10
54144;BME280;40050;47.324;18.792;2024-01-10T05:31:54;1020.97;;;-4.21;60.00
54144;BME280;40050;47.324;18.792;2024-01-10T05:33:55;1020.96;;;-4.21;59.95
54144;BME280;40050;47.324;18.792;2024-01-10T05:35:56;1020.89;;;-4.26;59.95
54144;BME280;40050;47.324;18.792;2024-01-10T05:37:57;1020.99;;;-4.23;60.12
54144;BME280;40050;47.324;18.792;2024-01-10T05:39:58;1020.99;;;-4.24;60.23
54144;BME280;40050;47.324;18.792;2024-01-10T05:41:59;1020.98;;;-4.29;60.22
54144;BME280;40050;47.324;18.792;2024-01-10T05:44:00;1021.04;;;-4.26;60.24
54144;BME280;40050;47.324;18.792;2024-01-10T05:46:00;1021.05;;;-4.29;60.30
54144;BME280;40050;47.324;18.792;2024-01-10T05:48:01;1021.08;;;-4.30;60.38
54144;BME280;40050;47.324;18.792;2024-01-10T05:50:03;1021.10;;;-4.33;60.27
54144;BME280;40050;47.324;18.792;2024-01-10T05:52:04;1021.08;;;-4.31;60.23
54144;BME280;40050;47.324;18.792;2024-01-10T05:54:05;1021.04;;;-4.41;60.36
54144;BME280;40050;47.324;18.792;2024-01-10T05:56:06;1021.09;;;-4.40;60.64
54144;BME280;40050;47.324;18.792;2024-01-10T05:58:07;1021.12;;;-4.40;60.59
54144;BME280;40050;47.324;18.792;2024-01-10T06:00:08;1021.14;;;-4.40;60.37
54144;BME280;40050;47.324;18.792;2024-01-10T06:02:09;1021.16;;;-4.43;60.35
54144;BME280;40050;47.324;18.792;2024-01-10T06:04:10;1021.16;;;-4.46;60.79
54144;BME280;40050;47.324;18.792;2024-01-10T06:06:11;1021.15;;;-4.45;62.09
54144;BME280;40050;47.324;18.792;2024-01-10T06:08:12;1021.17;;;-4.44;61.54
54144;BME280;40050;47.324;18.792;2024-01-10T06:10:12;1021.24;;;-4.43;61.36
54144;BME280;40050;47.324;18.792;2024-01-10T06:12:13;1021.22;;;-4.42;61.21
54144;BME280;40050;47.324;18.792;2024-01-10T06:14:14;1021.21;;;-4.40;61.20
54144;BME280;40050;47.324;18.792;2024-01-10T06:16:15;1021.21;;;-4.40;61.09
54144;BME280;40050;47.324;18.792;2024-01-10T06:18:16;1021.24;;;-4.37;61.06
54144;BME280;40050;47.324;18.792;2024-01-10T06:20:17;1021.22;;;-4.38;61.13
54144;BME280;40050;47.324;18.792;2024-01-10T06:22:18;1021.25;;;-4.38;61.19
54144;BME280;40050;47.324;18.792;2024-01-10T06:24:19;1021.19;;;-4.43;61.11
54144;BME280;40050;47.324;18.792;2024-01-10T06:26:20;1021.32;;;-4.38;60.82
54144;BME280;40050;47.324;18.792;2024-01-10T06:28:20;1021.34;;;-4.39;60.52
54144;BME280;40050;47.324;18.792;2024-01-10T06:30:21;1021.37;;;-4.42;60.56
54144;BME280;40050;47.324;18.792;2024-01-10T06:32:22;1021.31;;;-4.45;60.61
54144;BME280;40050;47.324;18.792;2024-01-10T06:34:23;1021.32;;;-4.45;60.77
54144;BME280;40050;47.324;18.792;2024-01-10T06:36:24;1021.26;;;-4.47;60.88
54144;BME280;40050;47.324;18.792;2024-01-10T06:38:25;1021.30;;;-4.47;61.06
54144;BME280;40050;47.324;18.792;2024-01-10T06:40:26;1021.26;;;-4.49;60.88
54144;BME280;40050;47.324;18.792;2024-01-10T06:42:27;1021.31;;;-4.52;60.83
54144;BME280;40050;47.324;18.792;2024-01-10T06:44:28;1021.33;;;-4.52;60.85
54144;BME280;40050;47.324;18.792;2024-01-10T06:46:29;1021.44;;;-4.48;61.04
54144;BME280;40050;47.324;18.792;2024-01-10T06:48:30;1021.47;;;-4.47;61.47
54144;BME280;40050;47.324;18.792;2024-01-10T06:50:30;1021.46;;;-4.48;61.31
54144;BME280;40050;47.324;18.792;2024-01-10T06:52:31;1021.42;;;-4.49;61.16
54144;BME280;40050;47.324;18.792;2024-01-10T06:54:32;1021.33;;;-4.54;61.35
54144;BME280;40050;47.324;18.792;2024-01-10T06:56:33;1021.40;;;-4.50;61.25
54144;BME280;40050;47.324;18.792;2024-01-10T06:58:34;1021.41;;;-4.50;61.14
54144;BME280;40050;47.324;18.792;2024-01-10T07:00:38;1021.42;;;-4.51;61.06
54144;BME280;40050;47.324;18.792;2024-01-10T07:02:39;1021.44;;;-4.50;61.05
54144;BME280;40050;47.324;18.792;2024-01-10T07:04:39;1021.40;;;-4.49;61.35
54144;BME280;40050;47.324;18.792;2024-01-10T07:06:40;1021.47;;;-4.51;61.32
54144;BME280;40050;47.324;18.792;2024-01-10T07:08:41;1021.47;;;-4.53;61.63
54144;BME280;40050;47.324;18.792;2024-01-10T07:10:42;1021.52;;;-4.50;62.01
54144;BME280;40050;47.324;18.792;2024-01-10T07:12:43;1021.56;;;-4.44;62.18
54144;BME280;40050;47.324;18.792;2024-01-10T07:14:44;1021.54;;;-4.40;62.27
54144;BME280;40050;47.324;18.792;2024-01-10T07:16:45;1021.49;;;-4.39;62.50
54144;BME280;40050;47.324;18.792;2024-01-10T07:18:46;1021.54;;;-4.30;62.49
54144;BME280;40050;47.324;18.792;2024-01-10T07:20:47;1021.53;;;-4.27;62.41
54144;BME280;40050;47.324;18.792;2024-01-10T07:22:48;1021.52;;;-4.26;62.31
54144;BME280;40050;47.324;18.792;2024-01-10T07:24:49;1021.49;;;-4.24;62.03
54144;BME280;40050;47.324;18.792;2024-01-10T07:26:50;1021.56;;;-4.16;61.73
54144;BME280;40050;47.324;18.792;2024-01-10T07:28:52;1021.43;;;-4.20;61.56
54144;BME280;40050;47.324;18.792;2024-01-10T07:30:53;1021.50;;;-4.14;61.61
54144;BME280;40050;47.324;18.792;2024-01-10T07:32:53;1021.50;;;-4.11;61.50
54144;BME280;40050;47.324;18.792;2024-01-10T07:34:54;1021.47;;;-4.12;61.48
54144;BME280;40050;47.324;18.792;2024-01-10T07:36:55;1021.46;;;-4.04;61.39
54144;BME280;40050;47.324;18.792;2024-01-10T07:38:56;1021.46;;;-4.02;61.40
54144;BME280;40050;47.324;18.792;2024-01-10T07:40:57;1021.48;;;-4.00;61.42
54144;BME280;40050;47.324;18.792;2024-01-10T07:42:58;1021.45;;;-3.97;61.67
54144;BME280;40050;47.324;18.792;2024-01-10T07:44:59;1021.40;;;-3.92;63.14
54144;BME280;40050;47.324;18.792;2024-01-10T07:47:00;1021.32;;;-3.91;62.51
54144;BME280;40050;47.324;18.792;2024-01-10T07:49:01;1021.34;;;-3.83;62.29
54144;BME280;40050;47.324;18.792;2024-01-10T07:51:02;1021.35;;;-3.75;62.04
54144;BME280;40050;47.324;18.792;2024-01-10T07:53:03;1021.41;;;-3.66;61.83
54144;BME280;40050;47.324;18.792;2024-01-10T07:55:04;1021.41;;;-3.61;61.82
54144;BME280;40050;47.324;18.792;2024-01-10T07:57:05;1021.37;;;-3.58;61.83
54144;BME280;40050;47.324;18.792;2024-01-10T07:59:06;1021.35;;;-3.50;62.06
54144;BME280;40050;47.324;18.792;2024-01-10T08:01:07;1021.49;;;-3.37;62.32
54144;BME280;40050;47.324;18.792;2024-01-10T08:03:07;1021.45;;;-3.27;62.44
54144;BME280;40050;47.324;18.792;2024-01-10T08:05:08;1021.51;;;-3.08;62.42
54144;BME280;40050;47.324;18.792;2024-01-10T08:07:09;1021.53;;;-2.94;62.35
54144;BME280;40050;47.324;18.792;2024-01-10T08:09:10;1021.60;;;-2.79;62.07
54144;BME280;40050;47.324;18.792;2024-01-10T08:11:11;1021.58;;;-2.61;62.00
54144;BME280;40050;47.324;18.792;2024-01-10T08:13:12;1021.58;;;-2.43;61.38
54144;BME280;40050;47.324;18.792;2024-01-10T08:15:13;1021.56;;;-2.27;60.94
54144;BME280;40050;47.324;18.792;2024-01-10T08:17:14;1021.58;;;-2.12;60.86
54144;BME280;40050;47.324;18.792;2024-01-10T08:19:15;1021.55;;;-1.93;60.54
54144;BME280;40050;47.324;18.792;2024-01-10T08:21:16;1021.58;;;-1.76;60.38
54144;BME280;40050;47.324;18.792;2024-01-10T08:23:17;1021.52;;;-1.59;60.23
54144;BME280;40050;47.324;18.792;2024-01-10T08:25:17;1021.59;;;-1.31;59.93
54144;BME280;40050;47.324;18.792;2024-01-10T08:27:18;1021.53;;;-1.13;59.64
54144;BME280;40050;47.324;18.792;2024-01-10T08:29:19;1021.60;;;-0.89;58.90
54144;BME280;40050;47.324;18.792;2024-01-10T08:31:20;1021.58;;;-0.68;58.54
54144;BME280;40050;47.324;18.792;2024-01-10T08:33:21;1021.62;;;-0.45;58.38
54144;BME280;40050;47.324;18.792;2024-01-10T08:35:22;1021.62;;;-0.27;57.56
54144;BME280;40050;47.324;18.792;2024-01-10T08:37:23;1021.67;;;-0.11;57.81
54144;BME280;40050;47.324;18.792;2024-01-10T08:39:24;1021.54;;;0.08;57.20
54144;BME280;40050;47.324;18.792;2024-01-10T08:41:25;1021.60;;;0.35;56.04
54144;BME280;40050;47.324;18.792;2024-01-10T08:43:25;1021.54;;;0.54;55.71
54144;BME280;40050;47.324;18.792;2024-01-10T08:45:26;1021.54;;;0.76;54.56
54144;BME280;40050;47.324;18.792;2024-01-10T08:47:27;1021.58;;;0.96;54.21
54144;BME280;40050;47.324;18.792;2024-01-10T08:49:28;1021.58;;;1.14;52.59
54144;BME280;40050;47.324;18.792;2024-01-10T08:51:29;1021.47;;;1.26;53.13
54144;BME280;40050;47.324;18.792;2024-01-10T08:53:30;1021.58;;;1.47;51.92
54144;BME280;40050;47.324;18.792;2024-01-10T08:55:31;1021.58;;;1.67;51.21
54144;BME280;40050;47.324;18.792;2024-01-10T08:57:32;1021.61;;;1.82;50.23
54144;BME280;40050;47.324;18.792;2024-01-10T08:59:33;1021.62;;;1.96;50.96
54144;BME280;40050;47.324;18.792;2024-01-10T09:01:34;1021.60;;;2.10;48.94
54144;BME280;40050;47.324;18.792;2024-01-10T09:03:35;1021.50;;;2.11;48.78
54144;BME280;40050;47.324;18.792;2024-01-10T09:05:36;1021.61;;;2.35;48.64
54144;BME280;40050;47.324;18.792;2024-01-10T09:07:36;1021.62;;;2.43;48.72
54144;BME280;40050;47.324;18.792;2024-01-10T09:09:37;1021.66;;;2.56;48.38
54144;BME280;40050;47.324;18.792;2024-01-10T09:11:38;1021.66;;;2.71;48.38
54144;BME280;40050;47.324;18.792;2024-01-10T09:13:39;1021.56;;;2.84;48.77
54144;BME280;40050;47.324;18.792;2024-01-10T09:15:40;1021.64;;;3.05;47.25
54144;BME280;40050;47.324;18.792;2024-01-10T09:17:41;1021.57;;;3.16;46.96
54144;BME280;40050;47.324;18.792;2024-01-10T09:19:42;1021.58;;;3.34;47.57
54144;BME280;40050;47.324;18.792;2024-01-10T09:21:46;1021.50;;;3.46;47.63
54144;BME280;40050;47.324;18.792;2024-01-10T09:23:47;1021.44;;;3.59;46.27
54144;BME280;40050;47.324;18.792;2024-01-10T09:25:48;1021.44;;;3.71;46.90
54144;BME280;40050;47.324;18.792;2024-01-10T09:27:49;1021.43;;;3.76;46.95
54144;BME280;40050;47.324;18.792;2024-01-10T09:29:50;1021.41;;;3.90;45.76
54144;BME280;40050;47.324;18.792;2024-01-10T09:31:51;1021.44;;;4.07;45.27
54144;BME280;40050;47.324;18.792;2024-01-10T09:33:52;1021.39;;;4.20;44.92
54144;BME280;40050;47.324;18.792;2024-01-10T09:35:53;1021.39;;;4.30;45.89
54144;BME280;40050;47.324;18.792;2024-01-10T09:37:54;1021.36;;;4.43;45.34
54144;BME280;40050;47.324;18.792;2024-01-10T09:39:55;1021.36;;;4.49;45.21
54144;BME280;40050;47.324;18.792;2024-01-10T09:41:55;1021.29;;;4.59;42.47
54144;BME280;40050;47.324;18.792;2024-01-10T09:43:58;1021.31;;;4.68;43.95
54144;BME280;40050;47.324;18.792;2024-01-10T09:46:00;1021.33;;;4.79;43.00
54144;BME280;40050;47.324;18.792;2024-01-10T09:48:01;1021.27;;;4.91;42.24
54144;BME280;40050;47.324;18.792;2024-01-10T09:50:02;1021.18;;;4.95;41.35
54144;BME280;40050;47.324;18.792;2024-01-10T09:52:03;1021.23;;;5.03;41.23
54144;BME280;40050;47.324;18.792;2024-01-10T09:54:05;1021.21;;;5.13;41.37
54144;BME280;40050;47.324;18.792;2024-01-10T09:56:06;1021.20;;;5.22;41.09
54144;BME280;40050;47.324;18.792;2024-01-10T09:58:07;1021.18;;;5.26;39.53
54144;BME280;40050;47.324;18.792;2024-01-10T10:00:09;1021.19;;;5.29;39.15
54144;BME280;40050;47.324;18.792;2024-01-10T10:02:11;1021.15;;;5.39;39.52
54144;BME280;40050;47.324;18.792;2024-01-10T10:04:12;1021.05;;;5.47;37.80
54144;BME280;40050;47.324;18.792;2024-01-10T10:06:13;1021.04;;;5.51;37.02
54144;BME280;40050;47.324;18.792;2024-01-10T10:08:14;1021.10;;;5.62;37.50
54144;BME280;40050;47.324;18.792;2024-01-10T10:10:16;1021.08;;;5.72;36.74
54144;BME280;40050;47.324;18.792;2024-01-10T10:12:17;1021.09;;;5.80;37.25
54144;BME280;40050;47.324;18.792;2024-01-10T10:14:18;1021.07;;;5.82;37.95
54144;BME280;40050;47.324;18.792;2024-01-10T10:16:22;1021.05;;;5.85;37.69
54144;BME280;40050;47.324;18.792;2024-01-10T10:18:24;1021.02;;;5.91;37.37
54144;BME280;40050;47.324;18.792;2024-01-10T10:20:28;1020.95;;;5.94;36.82
54144;BME280;40050;47.324;18.792;2024-01-10T10:22:29;1020.98;;;5.98;36.49
54144;BME280;40050;47.324;18.792;2024-01-10T10:24:30;1020.97;;;6.04;36.54
54144;BME280;40050;47.324;18.792;2024-01-10T10:26:33;1020.97;;;6.14;37.02
54144;BME280;40050;47.324;18.792;2024-01-10T10:28:34;1020.90;;;6.15;36.57
54144;BME280;40050;47.324;18.792;2024-01-10T10:30:35;1020.90;;;6.07;36.31
54144;BME280;40050;47.324;18.792;2024-01-10T10:32:36;1020.96;;;6.11;35.92
54144;BME280;40050;47.324;18.792;2024-01-10T10:34:37;1020.86;;;6.15;36.91
54144;BME280;40050;47.324;18.792;2024-01-10T10:36:38;1020.91;;;6.32;36.46
54144;BME280;40050;47.324;18.792;2024-01-10T10:38:39;1020.95;;;6.29;35.62
54144;BME280;40050;47.324;18.792;2024-01-10T10:40:40;1020.94;;;6.16;36.35
54144;BME280;40050;47.324;18.792;2024-01-10T10:42:43;1020.89;;;6.11;37.41